sensor_id;sensor_type;location;lat;lon;timestamp;temperature;humidity
46364;DHT22;32071;49.036;9.344;2022-09-09T00:04:28;13.80;99.90
46364;DHT22;32071;49.036;9.344;2022-09-09T00:15:12;13.80;99.90
46364;DHT22;32071;49.036;9.344;2022-09-09T00:20:16;13.80;99.90
46364;DHT22;32071;49.036;9.344;2022-09-09T00:22:50;13.80;99.90
46364;DHT22;32071;49.036;9.344;2022-09-09T00:25:28;13.80;99.90
46364;DHT22;32071;49.036;9.344;2022-09-09T00:27:56;13.80;99.90
46364;DHT22;32071;49.036;9.344;2022-09-09T00:30:29;13.80;99.90
46364;DHT22;32071;49.036;9.344;2022-09-09T00:33:03;13.80;99.90
46364;DHT22;32071;49.036;9.344;2022-09-09T00:35:36;13.80;99.90
46364;DHT22;32071;49.036;9.344;2022-09-09T00:38:55;13.80;99.90
46364;DHT22;32071;49.036;9.344;2022-09-09T00:43:32;14.00;99.90
46364;DHT22;32071;49.036;9.344;2022-09-09T00:49:22;14.00;99.90
46364;DHT22;32071;49.036;9.344;2022-09-09T00:52:03;14.00;99.90
46364;DHT22;32071;49.036;9.344;2022-09-09T00:57:35;14.00;99.90
46364;DHT22;32071;49.036;9.344;2022-09-09T01:00:22;14.00;99.90
46364;DHT22;32071;49.036;9.344;2022-09-09T01:06:02;14.00;99.90
46364;DHT22;32071;49.036;9.344;2022-09-09T01:08:39;14.00;99.90
46364;DHT22;32071;49.036;9.344;2022-09-09T01:11:13;13.90;99.90
46364;DHT22;32071;49.036;9.344;2022-09-09T01:13:41;14.00;99.90
46364;DHT22;32071;49.036;9.344;2022-09-09T01:16:09;14.00;99.90
46364;DHT22;32071;49.036;9.344;2022-09-09T01:18:48;14.00;99.90
46364;DHT22;32071;49.036;9.344;2022-09-09T01:21:30;14.00;99.90
46364;DHT22;32071;49.036;9.344;2022-09-09T01:26:43;14.00;99.90
46364;DHT22;32071;49.036;9.344;2022-09-09T01:29:12;14.10;99.90
46364;DHT22;32071;49.036;9.344;2022-09-09T01:31:57;14.00;99.90
46364;DHT22;32071;49.036;9.344;2022-09-09T01:34:35;14.10;99.90
46364;DHT22;32071;49.036;9.344;2022-09-09T01:37:06;14.10;99.90
46364;DHT22;32071;49.036;9.344;2022-09-09T01:39:33;14.00;99.90
46364;DHT22;32071;49.036;9.344;2022-09-09T01:42:00;14.10;99.90
46364;DHT22;32071;49.036;9.344;2022-09-09T01:44:27;14.00;99.90
46364;DHT22;32071;49.036;9.344;2022-09-09T01:46:53;14.00;99.90
46364;DHT22;32071;49.036;9.344;2022-09-09T01:49:19;14.10;99.90
46364;DHT22;32071;49.036;9.344;2022-09-09T01:51:48;14.10;99.90
46364;DHT22;32071;49.036;9.344;2022-09-09T01:54:15;14.20;99.90
46364;DHT22;32071;49.036;9.344;2022-09-09T01:57:15;14.20;99.90
46364;DHT22;32071;49.036;9.344;2022-09-09T02:00:05;14.10;99.90
46364;DHT22;32071;49.036;9.344;2022-09-09T02:05:49;14.20;99.90
46364;DHT22;32071;49.036;9.344;2022-09-09T02:08:23;14.20;99.90
46364;DHT22;32071;49.036;9.344;2022-09-09T02:13:37;14.10;99.90
46364;DHT22;32071;49.036;9.344;2022-09-09T02:21:28;14.10;99.90
46364;DHT22;32071;49.036;9.344;2022-09-09T02:23:57;14.20;99.90
46364;DHT22;32071;49.036;9.344;2022-09-09T02:26:23;14.20;99.90
46364;DHT22;32071;49.036;9.344;2022-09-09T02:28:52;14.20;99.90
46364;DHT22;32071;49.036;9.344;2022-09-09T02:31:22;14.20;99.90
46364;DHT22;32071;49.036;9.344;2022-09-09T02:33:56;14.20;99.90
46364;DHT22;32071;49.036;9.344;2022-09-09T02:36:24;14.10;99.90
46364;DHT22;32071;49.036;9.344;2022-09-09T02:38:51;14.10;99.90
46364;DHT22;32071;49.036;9.344;2022-09-09T02:41:32;14.10;99.90
46364;DHT22;32071;49.036;9.344;2022-09-09T02:43:58;14.10;99.90
46364;DHT22;32071;49.036;9.344;2022-09-09T02:49:34;14.00;99.90
46364;DHT22;32071;49.036;9.344;2022-09-09T02:52:08;14.00;99.90
46364;DHT22;32071;49.036;9.344;2022-09-09T02:54:41;13.90;99.90
46364;DHT22;32071;49.036;9.344;2022-09-09T02:57:19;13.90;99.90
46364;DHT22;32071;49.036;9.344;2022-09-09T02:59:47;13.80;99.90
46364;DHT22;32071;49.036;9.344;2022-09-09T03:02:13;13.80;99.90
46364;DHT22;32071;49.036;9.344;2022-09-09T03:04:39;13.70;99.90
46364;DHT22;32071;49.036;9.344;2022-09-09T03:07:05;13.60;99.90
46364;DHT22;32071;49.036;9.344;2022-09-09T03:09:31;13.50;99.90
46364;DHT22;32071;49.036;9.344;2022-09-09T03:11:58;13.50;99.90
46364;DHT22;32071;49.036;9.344;2022-09-09T03:14:24;13.50;99.90
46364;DHT22;32071;49.036;9.344;2022-09-09T03:16:54;13.50;99.90
46364;DHT22;32071;49.036;9.344;2022-09-09T03:19:20;13.50;99.90
46364;DHT22;32071;49.036;9.344;2022-09-09T03:21:46;13.50;99.90
46364;DHT22;32071;49.036;9.344;2022-09-09T03:24:12;13.50;99.90
46364;DHT22;32071;49.036;9.344;2022-09-09T03:26:39;13.60;99.90
46364;DHT22;32071;49.036;9.344;2022-09-09T03:29:06;13.60;99.90
46364;DHT22;32071;49.036;9.344;2022-09-09T03:31:33;13.60;99.90
46364;DHT22;32071;49.036;9.344;2022-09-09T03:33:59;13.70;99.90
46364;DHT22;32071;49.036;9.344;2022-09-09T03:36:26;13.70;99.90
46364;DHT22;32071;49.036;9.344;2022-09-09T03:38:52;13.70;99.90
46364;DHT22;32071;49.036;9.344;2022-09-09T03:41:20;13.70;99.90
46364;DHT22;32071;49.036;9.344;2022-09-09T03:43:46;13.60;99.90
46364;DHT22;32071;49.036;9.344;2022-09-09T03:46:11;13.60;99.90
46364;DHT22;32071;49.036;9.344;2022-09-09T03:48:38;13.50;99.90
46364;DHT22;32071;49.036;9.344;2022-09-09T03:51:03;13.50;99.90
46364;DHT22;32071;49.036;9.344;2022-09-09T03:53:29;13.50;99.90
46364;DHT22;32071;49.036;9.344;2022-09-09T03:55:56;13.40;99.90
46364;DHT22;32071;49.036;9.344;2022-09-09T03:58:26;13.40;99.90
46364;DHT22;32071;49.036;9.344;2022-09-09T04:00:58;13.40;99.90
46364;DHT22;32071;49.036;9.344;2022-09-09T04:03:25;13.40;99.90
46364;DHT22;32071;49.036;9.344;2022-09-09T04:05:51;13.40;99.90
46364;DHT22;32071;49.036;9.344;2022-09-09T04:08:18;13.40;99.90
46364;DHT22;32071;49.036;9.344;2022-09-09T04:10:48;13.40;99.90
46364;DHT22;32071;49.036;9.344;2022-09-09T04:13:14;13.40;99.90
46364;DHT22;32071;49.036;9.344;2022-09-09T04:15:42;13.30;99.90
46364;DHT22;32071;49.036;9.344;2022-09-09T04:18:08;13.30;99.90
46364;DHT22;32071;49.036;9.344;2022-09-09T04:20:34;13.30;99.90
46364;DHT22;32071;49.036;9.344;2022-09-09T04:23:01;13.30;99.90
46364;DHT22;32071;49.036;9.344;2022-09-09T04:25:26;13.30;99.90
46364;DHT22;32071;49.036;9.344;2022-09-09T04:27:56;13.30;99.90
46364;DHT22;32071;49.036;9.344;2022-09-09T04:30:22;13.30;99.90
46364;DHT22;32071;49.036;9.344;2022-09-09T04:32:48;13.30;99.90
46364;DHT22;32071;49.036;9.344;2022-09-09T04:35:14;13.30;99.90
46364;DHT22;32071;49.036;9.344;2022-09-09T04:37:40;13.30;99.90
46364;DHT22;32071;49.036;9.344;2022-09-09T04:40:06;13.30;99.90
46364;DHT22;32071;49.036;9.344;2022-09-09T04:42:35;13.30;99.90
46364;DHT22;32071;49.036;9.344;2022-09-09T04:45:01;13.30;99.90
46364;DHT22;32071;49.036;9.344;2022-09-09T04:47:27;13.30;99.90
46364;DHT22;32071;49.036;9.344;2022-09-09T04:49:52;13.40;99.90
46364;DHT22;32071;49.036;9.344;2022-09-09T04:52:20;13.40;99.90
46364;DHT22;32071;49.036;9.344;2022-09-09T04:54:46;13.40;99.90
46364;DHT22;32071;49.036;9.344;2022-09-09T04:57:12;13.40;99.90
46364;DHT22;32071;49.036;9.344;2022-09-09T04:59:37;13.40;99.90
46364;DHT22;32071;49.036;9.344;2022-09-09T05:02:04;13.40;99.90
46364;DHT22;32071;49.036;9.344;2022-09-09T05:04:30;13.40;99.90
46364;DHT22;32071;49.036;9.344;2022-09-09T05:06:56;13.50;99.90
46364;DHT22;32071;49.036;9.344;2022-09-09T05:09:21;13.50;99.90
46364;DHT22;32071;49.036;9.344;2022-09-09T05:11:47;13.50;99.90
46364;DHT22;32071;49.036;9.344;2022-09-09T05:14:12;13.50;99.90
46364;DHT22;32071;49.036;9.344;2022-09-09T05:16:39;13.50;99.90
46364;DHT22;32071;49.036;9.344;2022-09-09T05:19:05;13.50;99.90
46364;DHT22;32071;49.036;9.344;2022-09-09T05:21:33;13.50;99.90
46364;DHT22;32071;49.036;9.344;2022-09-09T05:23:59;13.50;99.90
46364;DHT22;32071;49.036;9.344;2022-09-09T05:26:26;13.50;99.90
46364;DHT22;32071;49.036;9.344;2022-09-09T05:28:51;13.50;99.90
46364;DHT22;32071;49.036;9.344;2022-09-09T05:31:18;13.60;99.90
46364;DHT22;32071;49.036;9.344;2022-09-09T05:33:45;13.60;99.90
46364;DHT22;32071;49.036;9.344;2022-09-09T05:36:16;13.70;99.90
46364;DHT22;32071;49.036;9.344;2022-09-09T05:38:42;13.70;99.90
46364;DHT22;32071;49.036;9.344;2022-09-09T05:41:10;13.70;99.90
46364;DHT22;32071;49.036;9.344;2022-09-09T05:43:41;13.70;99.90
46364;DHT22;32071;49.036;9.344;2022-09-09T05:46:11;13.80;99.90
46364;DHT22;32071;49.036;9.344;2022-09-09T05:48:42;13.80;99.90
46364;DHT22;32071;49.036;9.344;2022-09-09T05:51:13;14.00;99.90
46364;DHT22;32071;49.036;9.344;2022-09-09T05:53:41;14.10;99.90
46364;DHT22;32071;49.036;9.344;2022-09-09T05:56:12;14.20;99.90
46364;DHT22;32071;49.036;9.344;2022-09-09T05:58:40;14.30;99.90
46364;DHT22;32071;49.036;9.344;2022-09-09T06:01:11;14.40;99.90
46364;DHT22;32071;49.036;9.344;2022-09-09T06:03:39;14.50;99.90
46364;DHT22;32071;49.036;9.344;2022-09-09T06:06:08;14.60;99.90
46364;DHT22;32071;49.036;9.344;2022-09-09T06:08:35;14.60;99.90
46364;DHT22;32071;49.036;9.344;2022-09-09T06:11:04;14.60;99.90
46364;DHT22;32071;49.036;9.344;2022-09-09T06:13:32;14.60;99.90
46364;DHT22;32071;49.036;9.344;2022-09-09T06:15:58;14.70;99.90
46364;DHT22;32071;49.036;9.344;2022-09-09T06:18:25;14.80;99.90
46364;DHT22;32071;49.036;9.344;2022-09-09T06:20:59;14.90;99.90
46364;DHT22;32071;49.036;9.344;2022-09-09T06:23:26;15.00;99.90
46364;DHT22;32071;49.036;9.344;2022-09-09T06:26:08;15.10;99.90
46364;DHT22;32071;49.036;9.344;2022-09-09T06:28:35;15.10;99.90
46364;DHT22;32071;49.036;9.344;2022-09-09T06:31:04;15.20;99.90
46364;DHT22;32071;49.036;9.344;2022-09-09T06:33:35;15.30;99.90
46364;DHT22;32071;49.036;9.344;2022-09-09T06:36:02;15.40;99.90
46364;DHT22;32071;49.036;9.344;2022-09-09T06:38:29;15.40;99.90
46364;DHT22;32071;49.036;9.344;2022-09-09T06:40:57;15.50;99.90
46364;DHT22;32071;49.036;9.344;2022-09-09T06:43:26;15.60;99.90
46364;DHT22;32071;49.036;9.344;2022-09-09T06:45:59;15.70;99.90
46364;DHT22;32071;49.036;9.344;2022-09-09T06:48:26;15.90;99.90
46364;DHT22;32071;49.036;9.344;2022-09-09T06:51:21;16.00;99.90
46364;DHT22;32071;49.036;9.344;2022-09-09T06:53:50;16.20;99.90
46364;DHT22;32071;49.036;9.344;2022-09-09T06:58:42;16.60;99.90
46364;DHT22;32071;49.036;9.344;2022-09-09T07:01:10;16.70;99.90
46364;DHT22;32071;49.036;9.344;2022-09-09T07:03:35;16.90;99.90
46364;DHT22;32071;49.036;9.344;2022-09-09T07:06:02;17.00;99.90
46364;DHT22;32071;49.036;9.344;2022-09-09T07:08:29;17.20;99.90
46364;DHT22;32071;49.036;9.344;2022-09-09T07:11:05;17.30;99.90
46364;DHT22;32071;49.036;9.344;2022-09-09T07:13:31;17.40;99.90
46364;DHT22;32071;49.036;9.344;2022-09-09T07:16:07;17.40;99.90
46364;DHT22;32071;49.036;9.344;2022-09-09T07:18:33;17.50;99.90
46364;DHT22;32071;49.036;9.344;2022-09-09T07:20:59;17.50;99.90
46364;DHT22;32071;49.036;9.344;2022-09-09T07:23:25;17.60;99.90
46364;DHT22;32071;49.036;9.344;2022-09-09T07:25:51;17.70;99.90
46364;DHT22;32071;49.036;9.344;2022-09-09T07:28:19;17.70;99.90
46364;DHT22;32071;49.036;9.344;2022-09-09T07:30:56;17.90;99.90
46364;DHT22;32071;49.036;9.344;2022-09-09T07:33:22;18.10;99.90
46364;DHT22;32071;49.036;9.344;2022-09-09T07:35:49;18.20;99.90
46364;DHT22;32071;49.036;9.344;2022-09-09T07:38:15;18.30;99.90
46364;DHT22;32071;49.036;9.344;2022-09-09T07:40:41;18.40;99.90
46364;DHT22;32071;49.036;9.344;2022-09-09T07:43:06;18.50;99.90
46364;DHT22;32071;49.036;9.344;2022-09-09T07:45:33;18.60;99.90
46364;DHT22;32071;49.036;9.344;2022-09-09T07:48:00;18.60;99.90
46364;DHT22;32071;49.036;9.344;2022-09-09T07:50:26;18.80;99.90
46364;DHT22;32071;49.036;9.344;2022-09-09T07:52:52;18.90;99.90
46364;DHT22;32071;49.036;9.344;2022-09-09T07:55:19;19.00;99.90
46364;DHT22;32071;49.036;9.344;2022-09-09T07:57:45;19.00;99.90
46364;DHT22;32071;49.036;9.344;2022-09-09T08:00:13;19.20;99.90
46364;DHT22;32071;49.036;9.344;2022-09-09T08:02:40;19.30;99.90
46364;DHT22;32071;49.036;9.344;2022-09-09T08:05:06;19.30;99.90
46364;DHT22;32071;49.036;9.344;2022-09-09T08:07:32;19.30;99.90
46364;DHT22;32071;49.036;9.344;2022-09-09T08:09:57;19.10;99.90
46364;DHT22;32071;49.036;9.344;2022-09-09T08:12:23;19.00;99.90
46364;DHT22;32071;49.036;9.344;2022-09-09T08:14:49;19.00;99.90
46364;DHT22;32071;49.036;9.344;2022-09-09T08:17:15;19.00;99.90
46364;DHT22;32071;49.036;9.344;2022-09-09T08:19:41;19.00;99.90
46364;DHT22;32071;49.036;9.344;2022-09-09T08:22:06;19.10;99.90
46364;DHT22;32071;49.036;9.344;2022-09-09T08:24:33;19.30;99.90
46364;DHT22;32071;49.036;9.344;2022-09-09T08:26:59;19.50;99.90
46364;DHT22;32071;49.036;9.344;2022-09-09T08:29:26;19.60;99.90
46364;DHT22;32071;49.036;9.344;2022-09-09T08:31:56;19.80;99.90
46364;DHT22;32071;49.036;9.344;2022-09-09T08:34:24;19.80;99.90
46364;DHT22;32071;49.036;9.344;2022-09-09T08:36:53;19.70;99.90
46364;DHT22;32071;49.036;9.344;2022-09-09T08:39:20;19.70;99.90
46364;DHT22;32071;49.036;9.344;2022-09-09T08:50:01;19.80;99.90
46364;DHT22;32071;49.036;9.344;2022-09-09T08:55:26;20.20;99.90
46364;DHT22;32071;49.036;9.344;2022-09-09T08:57:57;20.40;99.90
46364;DHT22;32071;49.036;9.344;2022-09-09T09:00:32;20.30;99.90
46364;DHT22;32071;49.036;9.344;2022-09-09T09:06:15;20.50;99.90
46364;DHT22;32071;49.036;9.344;2022-09-09T09:11:51;20.50;99.90
46364;DHT22;32071;49.036;9.344;2022-09-09T09:14:24;20.60;99.90
46364;DHT22;32071;49.036;9.344;2022-09-09T09:17:03;20.70;99.90
46364;DHT22;32071;49.036;9.344;2022-09-09T09:19:31;20.90;99.90
46364;DHT22;32071;49.036;9.344;2022-09-09T09:22:20;21.00;99.90
46364;DHT22;32071;49.036;9.344;2022-09-09T09:27:35;21.00;99.90
46364;DHT22;32071;49.036;9.344;2022-09-09T09:32:39;20.80;99.90
46364;DHT22;32071;49.036;9.344;2022-09-09T09:35:11;21.00;99.90
46364;DHT22;32071;49.036;9.344;2022-09-09T09:37:37;21.30;99.90
46364;DHT22;32071;49.036;9.344;2022-09-09T09:40:19;21.60;99.90
46364;DHT22;32071;49.036;9.344;2022-09-09T09:42:53;21.60;99.90
46364;DHT22;32071;49.036;9.344;2022-09-09T09:45:32;21.80;99.90
46364;DHT22;32071;49.036;9.344;2022-09-09T09:48:03;21.60;99.90
46364;DHT22;32071;49.036;9.344;2022-09-09T09:50:30;21.60;99.90
46364;DHT22;32071;49.036;9.344;2022-09-09T09:53:02;21.40;99.90
46364;DHT22;32071;49.036;9.344;2022-09-09T09:55:30;21.40;99.90
46364;DHT22;32071;49.036;9.344;2022-09-09T09:58:06;21.60;99.90
46364;DHT22;32071;49.036;9.344;2022-09-09T10:00:50;21.80;99.90
46364;DHT22;32071;49.036;9.344;2022-09-09T10:03:26;22.10;99.90
46364;DHT22;32071;49.036;9.344;2022-09-09T10:05:53;22.30;99.90
46364;DHT22;32071;49.036;9.344;2022-09-09T10:08:19;22.60;99.90
46364;DHT22;32071;49.036;9.344;2022-09-09T10:11:09;22.90;96.80
46364;DHT22;32071;49.036;9.344;2022-09-09T10:19:14;23.20;97.50
46364;DHT22;32071;49.036;9.344;2022-09-09T10:21:53;22.80;98.30
46364;DHT22;32071;49.036;9.344;2022-09-09T10:27:01;22.80;98.10
46364;DHT22;32071;49.036;9.344;2022-09-09T10:29:40;22.40;98.10
46364;DHT22;32071;49.036;9.344;2022-09-09T10:34:55;21.80;99.50
46364;DHT22;32071;49.036;9.344;2022-09-09T10:37:44;21.30;99.60
46364;DHT22;32071;49.036;9.344;2022-09-09T10:42:40;20.30;99.90
46364;DHT22;32071;49.036;9.344;2022-09-09T10:51:28;20.20;99.90
46364;DHT22;32071;49.036;9.344;2022-09-09T10:56:36;20.50;99.90
46364;DHT22;32071;49.036;9.344;2022-09-09T10:59:11;20.40;99.90
46364;DHT22;32071;49.036;9.344;2022-09-09T11:01:44;20.30;99.90
46364;DHT22;32071;49.036;9.344;2022-09-09T11:06:51;20.00;99.90
46364;DHT22;32071;49.036;9.344;2022-09-09T11:09:22;19.90;99.90
46364;DHT22;32071;49.036;9.344;2022-09-09T11:11:56;20.00;99.90
46364;DHT22;32071;49.036;9.344;2022-09-09T11:14:41;20.10;99.90
46364;DHT22;32071;49.036;9.344;2022-09-09T11:17:15;20.20;99.90
46364;DHT22;32071;49.036;9.344;2022-09-09T11:19:43;20.20;99.90
46364;DHT22;32071;49.036;9.344;2022-09-09T11:30:20;20.50;99.90
46364;DHT22;32071;49.036;9.344;2022-09-09T11:35:59;20.30;99.90
46364;DHT22;32071;49.036;9.344;2022-09-09T11:38:55;20.40;99.90
46364;DHT22;32071;49.036;9.344;2022-09-09T11:41:19;20.30;99.90
46364;DHT22;32071;49.036;9.344;2022-09-09T11:43:52;20.10;99.90
46364;DHT22;32071;49.036;9.344;2022-09-09T11:46:21;19.80;99.90
46364;DHT22;32071;49.036;9.344;2022-09-09T11:49:01;19.50;99.90
46364;DHT22;32071;49.036;9.344;2022-09-09T11:51:29;19.20;99.90
46364;DHT22;32071;49.036;9.344;2022-09-09T11:56:50;18.90;99.90
46364;DHT22;32071;49.036;9.344;2022-09-09T11:59:28;18.80;99.90
46364;DHT22;32071;49.036;9.344;2022-09-09T12:02:03;18.60;99.90
46364;DHT22;32071;49.036;9.344;2022-09-09T12:04:39;18.50;99.90
46364;DHT22;32071;49.036;9.344;2022-09-09T12:10:04;18.80;99.90
46364;DHT22;32071;49.036;9.344;2022-09-09T12:12:35;19.00;99.90
46364;DHT22;32071;49.036;9.344;2022-09-09T12:20:21;20.30;99.90
46364;DHT22;32071;49.036;9.344;2022-09-09T12:28:25;21.90;99.30
46364;DHT22;32071;49.036;9.344;2022-09-09T12:33:48;22.50;97.20
46364;DHT22;32071;49.036;9.344;2022-09-09T12:36:19;22.70;96.60
46364;DHT22;32071;49.036;9.344;2022-09-09T12:38:46;22.90;95.80
46364;DHT22;32071;49.036;9.344;2022-09-09T12:41:23;23.40;95.90
46364;DHT22;32071;49.036;9.344;2022-09-09T12:43:50;23.50;94.90
46364;DHT22;32071;49.036;9.344;2022-09-09T12:46:39;23.30;94.50
46364;DHT22;32071;49.036;9.344;2022-09-09T12:49:24;23.10;95.30
46364;DHT22;32071;49.036;9.344;2022-09-09T12:51:51;23.10;95.70
46364;DHT22;32071;49.036;9.344;2022-09-09T12:54:18;23.00;95.60
46364;DHT22;32071;49.036;9.344;2022-09-09T12:56:46;22.90;95.70
46364;DHT22;32071;49.036;9.344;2022-09-09T12:59:34;23.00;95.80
46364;DHT22;32071;49.036;9.344;2022-09-09T13:02:00;23.10;95.30
46364;DHT22;32071;49.036;9.344;2022-09-09T13:04:26;22.90;94.80
46364;DHT22;32071;49.036;9.344;2022-09-09T13:06:51;22.70;94.30
46364;DHT22;32071;49.036;9.344;2022-09-09T13:09:21;22.70;94.40
46364;DHT22;32071;49.036;9.344;2022-09-09T13:11:52;23.00;93.60
46364;DHT22;32071;49.036;9.344;2022-09-09T13:14:33;23.00;93.60
46364;DHT22;32071;49.036;9.344;2022-09-09T13:17:04;23.30;93.10
46364;DHT22;32071;49.036;9.344;2022-09-09T13:19:34;23.50;92.20
46364;DHT22;32071;49.036;9.344;2022-09-09T13:22:12;23.90;92.30
46364;DHT22;32071;49.036;9.344;2022-09-09T13:24:38;24.10;91.50
46364;DHT22;32071;49.036;9.344;2022-09-09T13:27:26;24.10;90.00
46364;DHT22;32071;49.036;9.344;2022-09-09T13:29:54;24.10;91.20
46364;DHT22;32071;49.036;9.344;2022-09-09T13:32:24;24.50;90.10
46364;DHT22;32071;49.036;9.344;2022-09-09T13:34:51;24.10;89.80
46364;DHT22;32071;49.036;9.344;2022-09-09T13:37:34;23.70;90.30
46364;DHT22;32071;49.036;9.344;2022-09-09T13:40:00;23.50;89.50
46364;DHT22;32071;49.036;9.344;2022-09-09T13:42:29;23.40;90.70
46364;DHT22;32071;49.036;9.344;2022-09-09T13:44:56;23.30;90.70
46364;DHT22;32071;49.036;9.344;2022-09-09T13:47:32;23.50;91.50
46364;DHT22;32071;49.036;9.344;2022-09-09T13:50:09;23.70;90.30
46364;DHT22;32071;49.036;9.344;2022-09-09T13:52:35;23.50;88.50
46364;DHT22;32071;49.036;9.344;2022-09-09T13:55:00;23.30;90.60
46364;DHT22;32071;49.036;9.344;2022-09-09T13:57:26;23.40;91.00
46364;DHT22;32071;49.036;9.344;2022-09-09T13:59:53;23.60;88.80
46364;DHT22;32071;49.036;9.344;2022-09-09T14:02:20;23.50;90.00
46364;DHT22;32071;49.036;9.344;2022-09-09T14:04:48;23.30;90.00
46364;DHT22;32071;49.036;9.344;2022-09-09T14:07:17;23.20;89.20
46364;DHT22;32071;49.036;9.344;2022-09-09T14:09:43;23.40;88.70
46364;DHT22;32071;49.036;9.344;2022-09-09T14:12:11;23.80;90.30
46364;DHT22;32071;49.036;9.344;2022-09-09T14:14:37;23.80;88.90
46364;DHT22;32071;49.036;9.344;2022-09-09T14:17:03;23.60;88.10
46364;DHT22;32071;49.036;9.344;2022-09-09T14:19:29;23.40;88.30
46364;DHT22;32071;49.036;9.344;2022-09-09T14:21:56;23.40;89.30
46364;DHT22;32071;49.036;9.344;2022-09-09T14:24:22;23.60;90.10
46364;DHT22;32071;49.036;9.344;2022-09-09T14:26:47;24.40;88.70
46364;DHT22;32071;49.036;9.344;2022-09-09T14:29:13;24.80;86.20
46364;DHT22;32071;49.036;9.344;2022-09-09T14:31:38;25.00;85.50
46364;DHT22;32071;49.036;9.344;2022-09-09T14:34:04;25.00;84.60
46364;DHT22;32071;49.036;9.344;2022-09-09T14:36:31;25.40;83.60
46364;DHT22;32071;49.036;9.344;2022-09-09T14:38:57;26.20;85.00
46364;DHT22;32071;49.036;9.344;2022-09-09T14:41:23;26.80;84.30
46364;DHT22;32071;49.036;9.344;2022-09-09T14:43:48;26.00;85.00
46364;DHT22;32071;49.036;9.344;2022-09-09T14:46:16;25.00;86.80
46364;DHT22;32071;49.036;9.344;2022-09-09T14:48:43;24.40;88.40
46364;DHT22;32071;49.036;9.344;2022-09-09T14:51:12;23.90;90.00
46364;DHT22;32071;49.036;9.344;2022-09-09T14:53:39;24.60;89.20
46364;DHT22;32071;49.036;9.344;2022-09-09T14:56:10;25.00;88.40
46364;DHT22;32071;49.036;9.344;2022-09-09T14:58:36;25.80;85.70
46364;DHT22;32071;49.036;9.344;2022-09-09T15:01:17;25.90;86.50
46364;DHT22;32071;49.036;9.344;2022-09-09T15:03:49;25.30;86.90
46364;DHT22;32071;49.036;9.344;2022-09-09T15:06:15;24.50;88.60
46364;DHT22;32071;49.036;9.344;2022-09-09T15:08:43;24.00;89.70
46364;DHT22;32071;49.036;9.344;2022-09-09T15:11:10;23.50;90.00
46364;DHT22;32071;49.036;9.344;2022-09-09T15:13:37;23.10;90.50
46364;DHT22;32071;49.036;9.344;2022-09-09T15:16:06;22.70;90.40
46364;DHT22;32071;49.036;9.344;2022-09-09T15:18:33;22.50;88.50
46364;DHT22;32071;49.036;9.344;2022-09-09T15:20:59;22.20;89.10
46364;DHT22;32071;49.036;9.344;2022-09-09T15:23:26;22.00;90.40
46364;DHT22;32071;49.036;9.344;2022-09-09T15:25:53;22.10;90.50
46364;DHT22;32071;49.036;9.344;2022-09-09T15:28:19;22.10;90.50
46364;DHT22;32071;49.036;9.344;2022-09-09T15:30:48;21.90;91.10
46364;DHT22;32071;49.036;9.344;2022-09-09T15:33:13;21.90;91.80
46364;DHT22;32071;49.036;9.344;2022-09-09T15:35:39;21.70;92.30
46364;DHT22;32071;49.036;9.344;2022-09-09T15:38:04;21.70;91.60
46364;DHT22;32071;49.036;9.344;2022-09-09T15:40:30;22.90;90.30
46364;DHT22;32071;49.036;9.344;2022-09-09T15:42:58;23.40;90.00
46364;DHT22;32071;49.036;9.344;2022-09-09T15:45:23;23.40;90.00
46364;DHT22;32071;49.036;9.344;2022-09-09T15:47:49;23.20;89.50
46364;DHT22;32071;49.036;9.344;2022-09-09T15:50:15;22.90;88.40
46364;DHT22;32071;49.036;9.344;2022-09-09T15:52:40;22.50;89.20
46364;DHT22;32071;49.036;9.344;2022-09-09T15:55:06;22.20;89.30
46364;DHT22;32071;49.036;9.344;2022-09-09T15:57:34;21.90;89.30
46364;DHT22;32071;49.036;9.344;2022-09-09T16:00:00;21.70;90.20
46364;DHT22;32071;49.036;9.344;2022-09-09T16:02:26;21.60;90.70
46364;DHT22;32071;49.036;9.344;2022-09-09T16:04:52;21.40;90.70
46364;DHT22;32071;49.036;9.344;2022-09-09T16:07:17;21.30;90.50
46364;DHT22;32071;49.036;9.344;2022-09-09T16:09:43;21.20;90.60
46364;DHT22;32071;49.036;9.344;2022-09-09T16:12:09;21.00;91.00
46364;DHT22;32071;49.036;9.344;2022-09-09T16:14:37;20.90;91.10
46364;DHT22;32071;49.036;9.344;2022-09-09T16:17:05;20.80;91.30
46364;DHT22;32071;49.036;9.344;2022-09-09T16:19:31;20.80;91.40
46364;DHT22;32071;49.036;9.344;2022-09-09T16:21:57;20.70;91.60
46364;DHT22;32071;49.036;9.344;2022-09-09T16:24:23;20.60;91.90
46364;DHT22;32071;49.036;9.344;2022-09-09T16:26:54;20.60;91.80
46364;DHT22;32071;49.036;9.344;2022-09-09T16:29:20;20.60;92.20
46364;DHT22;32071;49.036;9.344;2022-09-09T16:31:47;20.50;92.30
46364;DHT22;32071;49.036;9.344;2022-09-09T16:34:13;20.50;92.50
46364;DHT22;32071;49.036;9.344;2022-09-09T16:36:41;20.50;92.60
46364;DHT22;32071;49.036;9.344;2022-09-09T16:39:10;20.50;93.00
46364;DHT22;32071;49.036;9.344;2022-09-09T16:41:37;20.40;94.40
46364;DHT22;32071;49.036;9.344;2022-09-09T16:44:08;20.30;95.60
46364;DHT22;32071;49.036;9.344;2022-09-09T16:46:36;20.00;97.40
46364;DHT22;32071;49.036;9.344;2022-09-09T16:49:05;19.30;99.90
46364;DHT22;32071;49.036;9.344;2022-09-09T16:51:40;18.50;99.90
46364;DHT22;32071;49.036;9.344;2022-09-09T16:54:07;17.90;99.90
46364;DHT22;32071;49.036;9.344;2022-09-09T16:56:35;17.40;99.90
46364;DHT22;32071;49.036;9.344;2022-09-09T16:59:07;17.00;99.90
46364;DHT22;32071;49.036;9.344;2022-09-09T17:01:35;16.70;99.90
46364;DHT22;32071;49.036;9.344;2022-09-09T17:04:08;16.50;99.90
46364;DHT22;32071;49.036;9.344;2022-09-09T17:06:35;16.20;99.90
46364;DHT22;32071;49.036;9.344;2022-09-09T17:09:04;16.10;99.90
46364;DHT22;32071;49.036;9.344;2022-09-09T17:11:30;16.10;99.90
46364;DHT22;32071;49.036;9.344;2022-09-09T17:13:57;16.00;99.90
46364;DHT22;32071;49.036;9.344;2022-09-09T17:16:27;15.90;99.90
46364;DHT22;32071;49.036;9.344;2022-09-09T17:18:54;15.80;99.90
46364;DHT22;32071;49.036;9.344;2022-09-09T17:21:22;15.70;99.90
46364;DHT22;32071;49.036;9.344;2022-09-09T17:23:49;15.60;99.90
46364;DHT22;32071;49.036;9.344;2022-09-09T17:26:18;15.60;99.90
46364;DHT22;32071;49.036;9.344;2022-09-09T17:28:44;15.60;99.90
46364;DHT22;32071;49.036;9.344;2022-09-09T17:31:12;15.60;99.90
46364;DHT22;32071;49.036;9.344;2022-09-09T17:33:40;15.60;99.90
46364;DHT22;32071;49.036;9.344;2022-09-09T17:36:10;15.60;99.90
46364;DHT22;32071;49.036;9.344;2022-09-09T17:38:36;15.60;99.90
46364;DHT22;32071;49.036;9.344;2022-09-09T17:41:21;15.50;99.90
46364;DHT22;32071;49.036;9.344;2022-09-09T17:43:47;15.40;99.90
46364;DHT22;32071;49.036;9.344;2022-09-09T17:46:27;15.30;99.90
46364;DHT22;32071;49.036;9.344;2022-09-09T17:48:59;15.30;99.90